createdAt,value
2023-04-16T00:00:44.694Z,73.90
2023-04-16T00:03:11.910Z,73.60
2023-04-16T00:05:39.166Z,73.90
2023-04-16T00:08:07.692Z,73.60
2023-04-16T00:10:35.507Z,73.50
2023-04-16T00:13:02.553Z,74.30
2023-04-16T00:15:29.550Z,73.50
2023-04-16T00:17:56.500Z,74.30
2023-04-16T00:20:23.638Z,74.30
2023-04-16T00:22:51.915Z,74.40
2023-04-16T00:25:20.364Z,75.20
2023-04-16T00:27:47.958Z,74.50
2023-04-16T00:30:15.121Z,74.50
2023-04-16T00:32:42.212Z,73.90
2023-04-16T00:35:09.526Z,74.40
2023-04-16T00:37:36.732Z,75.10
2023-04-16T00:40:06.976Z,74.30
2023-04-16T00:42:38.250Z,74.80
2023-04-16T00:45:07.611Z,74.70
2023-04-16T00:47:37.053Z,74.40
2023-04-16T00:50:05.085Z,75.10
2023-04-16T00:52:34.525Z,75.10
2023-04-16T00:55:01.954Z,75.30
2023-04-16T00:57:31.022Z,74.80
2023-04-16T01:00:05.795Z,74.80
2023-04-16T01:02:44.440Z,74.70
2023-04-16T01:05:21.323Z,74.80
2023-04-16T01:07:48.290Z,75.60
2023-04-16T01:10:18.242Z,74.90
2023-04-16T01:12:45.592Z,74.90
2023-04-16T01:15:14.113Z,74.50
2023-04-16T01:17:41.149Z,74.90
2023-04-16T01:20:21.997Z,75.10
2023-04-16T01:22:52.569Z,74.40
2023-04-16T01:25:20.210Z,73.70
2023-04-16T01:27:50.874Z,73.80
2023-04-16T01:30:17.893Z,74.70
2023-04-16T01:32:45.147Z,75.30
2023-04-16T01:35:12.095Z,74.90
2023-04-16T01:37:39.379Z,75.10
2023-04-16T01:40:11.590Z,74.80
2023-04-16T01:42:41.836Z,75.50
2023-04-16T01:45:10.035Z,75.30
2023-04-16T01:47:37.096Z,75.60
2023-04-16T01:50:04.923Z,75.00
2023-04-16T01:52:32.495Z,75.80
2023-04-16T01:54:59.495Z,75.70
2023-04-16T01:57:28.385Z,75.20
2023-04-16T01:59:55.552Z,75.60
2023-04-16T02:02:28.458Z,75.70
2023-04-16T02:04:59.277Z,75.80
2023-04-16T02:07:27.661Z,75.80
2023-04-16T02:09:54.656Z,76.20
2023-04-16T02:12:21.713Z,76.00
2023-04-16T02:14:50.121Z,75.50
2023-04-16T02:17:17.746Z,75.80
2023-04-16T02:19:44.682Z,75.70
2023-04-16T02:22:11.860Z,75.30
2023-04-16T02:24:38.802Z,76.10
2023-04-16T02:27:05.988Z,75.80
2023-04-16T02:29:43.091Z,75.70
2023-04-16T02:32:12.243Z,75.10
2023-04-16T02:34:42.339Z,75.70
2023-04-16T02:37:09.383Z,75.70
2023-04-16T02:39:36.814Z,76.30
2023-04-16T02:42:05.119Z,75.90
2023-04-16T02:44:56.738Z,76.50
2023-04-16T02:47:29.204Z,75.60
2023-04-16T02:49:56.335Z,75.60
2023-04-16T02:52:23.549Z,75.10
2023-04-16T02:54:50.454Z,76.10
2023-04-16T02:57:17.686Z,75.70
2023-04-16T02:59:44.649Z,76.30
2023-04-16T03:02:12.064Z,75.60
2023-04-16T03:04:40.626Z,76.20
2023-04-16T03:07:09.151Z,76.50
2023-04-16T03:09:36.342Z,76.20
2023-04-16T03:12:03.343Z,76.30
2023-04-16T03:14:31.140Z,76.50
2023-04-16T03:16:58.162Z,77.00
2023-04-16T03:19:25.880Z,76.90
2023-04-16T03:21:54.345Z,76.40
2023-04-16T03:24:21.703Z,76.00
2023-04-16T03:26:50.377Z,76.50
2023-04-16T03:29:17.435Z,76.70
2023-04-16T03:31:45.112Z,77.00
2023-04-16T03:34:12.134Z,76.20
2023-04-16T03:36:41.777Z,76.60
2023-04-16T03:39:10.275Z,77.40
2023-04-16T03:41:39.569Z,75.90
2023-04-16T03:44:06.554Z,77.20
2023-04-16T03:46:36.542Z,77.60
2023-04-16T03:49:06.373Z,77.00
2023-04-16T03:51:33.736Z,76.80
2023-04-16T03:54:00.796Z,76.90
2023-04-16T03:56:29.146Z,77.00
2023-04-16T03:58:57.300Z,76.60
2023-04-16T04:01:24.183Z,76.80
2023-04-16T04:03:51.531Z,77.40
2023-04-16T04:06:18.648Z,77.90
2023-04-16T04:08:45.905Z,77.70
2023-04-16T04:11:12.926Z,77.40
2023-04-16T04:13:41.477Z,77.70
2023-04-16T04:16:08.492Z,77.90
2023-04-16T04:18:35.554Z,77.60
2023-04-16T04:21:06.494Z,77.50
2023-04-16T04:23:34.064Z,77.80
2023-04-16T04:26:05.909Z,76.80
2023-04-16T04:28:33.527Z,77.30
2023-04-16T04:31:02.520Z,77.50
2023-04-16T04:33:30.067Z,77.40
2023-04-16T04:35:57.248Z,76.70
2023-04-16T04:38:25.405Z,77.80
2023-04-16T04:40:53.045Z,78.00
2023-04-16T04:43:20.330Z,77.60
2023-04-16T04:45:48.420Z,77.80
2023-04-16T04:48:19.791Z,78.00
2023-04-16T04:50:47.435Z,77.80
2023-04-16T04:53:14.928Z,77.90
2023-04-16T04:55:42.739Z,78.40
2023-04-16T04:58:09.689Z,78.30
2023-04-16T05:00:37.187Z,77.10
2023-04-16T05:03:06.220Z,77.80
2023-04-16T05:05:34.477Z,78.10
2023-04-16T05:08:01.964Z,79.10
2023-04-16T05:10:28.879Z,78.10
2023-04-16T05:12:56.453Z,77.70
2023-04-16T05:15:23.531Z,77.80
2023-04-16T05:17:50.763Z,77.90
2023-04-16T05:20:17.780Z,78.50
2023-04-16T05:22:46.196Z,78.30
2023-04-16T05:25:13.194Z,78.10
2023-04-16T05:27:40.664Z,78.20
2023-04-16T05:30:08.956Z,78.20
2023-04-16T05:32:36.113Z,77.80
2023-04-16T05:35:03.270Z,77.90
2023-04-16T05:37:30.379Z,78.30
2023-04-16T05:39:58.874Z,78.50
2023-04-16T05:42:32.912Z,78.60
2023-04-16T05:44:59.861Z,78.50
2023-04-16T05:47:27.403Z,78.30
2023-04-16T05:49:54.956Z,78.70
2023-04-16T05:52:22.126Z,78.30
2023-04-16T05:54:48.980Z,78.60
2023-04-16T05:57:17.812Z,78.90
2023-04-16T05:59:44.975Z,78.70
2023-04-16T06:02:12.236Z,78.20
2023-04-16T06:04:39.762Z,78.60
2023-04-16T06:07:07.068Z,78.70
2023-04-16T06:09:34.472Z,78.00
2023-04-16T06:12:01.384Z,78.60
2023-04-16T06:14:29.662Z,78.20
2023-04-16T06:16:56.531Z,78.60
2023-04-16T06:19:23.510Z,78.50
2023-04-16T06:21:50.890Z,78.40
2023-04-16T06:24:18.508Z,78.30
2023-04-16T06:26:45.983Z,79.20
2023-04-16T06:29:13.063Z,78.50
2023-04-16T06:31:42.015Z,78.30
2023-04-16T06:34:09.623Z,78.90
2023-04-16T06:36:37.701Z,78.90
2023-04-16T06:39:05.785Z,79.00
2023-04-16T06:41:32.816Z,78.90
2023-04-16T06:44:00.190Z,78.90
2023-04-16T06:46:27.247Z,79.10
2023-04-16T06:48:56.219Z,78.90
2023-04-16T06:51:23.292Z,79.60
2023-04-16T06:53:50.468Z,78.70
2023-04-16T06:56:21.743Z,78.70
2023-04-16T06:58:50.103Z,78.10
2023-04-16T07:01:17.786Z,78.80
2023-04-16T07:03:45.247Z,78.80
2023-04-16T07:06:16.180Z,78.70
2023-04-16T07:08:43.524Z,79.30
2023-04-16T07:11:10.676Z,78.50
2023-04-16T07:13:40.494Z,78.40
2023-04-16T07:16:08.048Z,79.10
2023-04-16T07:18:35.080Z,79.00
2023-04-16T07:21:02.576Z,79.40
2023-04-16T07:23:31.390Z,79.10
2023-04-16T07:25:58.369Z,79.10
2023-04-16T07:28:26.322Z,79.20
2023-04-16T07:30:53.193Z,78.70
2023-04-16T07:33:23.111Z,79.00
2023-04-16T07:35:51.363Z,79.40
2023-04-16T07:38:18.282Z,78.80
2023-04-16T07:40:46.977Z,78.90
2023-04-16T07:43:15.390Z,78.80
2023-04-16T07:45:42.391Z,79.00
2023-04-16T07:48:09.954Z,78.80
2023-04-16T07:50:37.269Z,78.80
2023-04-16T07:53:06.143Z,79.00
2023-04-16T07:55:35.691Z,79.20
2023-04-16T07:58:07.930Z,79.10
2023-04-16T08:00:35.122Z,78.30
2023-04-16T08:03:02.262Z,79.10
2023-04-16T08:05:30.069Z,79.10
2023-04-16T08:07:57.262Z,78.70
2023-04-16T08:10:24.338Z,78.70
2023-04-16T08:12:51.554Z,78.40
2023-04-16T08:15:20.057Z,78.70
2023-04-16T08:17:49.844Z,78.70
2023-04-16T08:20:19.199Z,78.90
2023-04-16T08:22:48.046Z,78.80
2023-04-16T08:25:15.186Z,78.80
2023-04-16T08:27:42.208Z,79.20
2023-04-16T08:30:09.328Z,79.00
2023-04-16T08:32:37.876Z,78.90
2023-04-16T08:35:06.011Z,79.30
2023-04-16T08:37:32.945Z,79.20
2023-04-16T08:40:01.035Z,79.20
2023-04-16T08:42:32.083Z,78.70
2023-04-16T08:45:07.714Z,78.80
2023-04-16T08:47:37.285Z,78.80
2023-04-16T08:50:06.212Z,78.70
2023-04-16T08:52:34.380Z,78.70
2023-04-16T08:55:09.220Z,78.90
2023-04-16T08:57:40.776Z,79.10
2023-04-16T09:00:09.824Z,78.70
2023-04-16T09:02:39.207Z,78.50
2023-04-16T09:05:09.551Z,78.40
2023-04-16T09:07:37.873Z,79.00
2023-04-16T09:10:07.468Z,79.10
2023-04-16T09:12:36.315Z,78.90
2023-04-16T09:15:05.186Z,79.10
2023-04-16T09:17:32.693Z,78.30
2023-04-16T09:20:01.862Z,78.70
2023-04-16T09:22:29.009Z,78.80
2023-04-16T09:24:56.168Z,78.70
2023-04-16T09:27:25.452Z,79.00
2023-04-16T09:29:52.984Z,78.60
2023-04-16T09:32:26.552Z,78.80
2023-04-16T09:34:57.917Z,79.00
2023-04-16T09:37:29.445Z,79.10
2023-04-16T09:39:57.987Z,78.80
2023-04-16T09:42:27.346Z,78.70
2023-04-16T09:44:54.546Z,78.80
2023-04-16T09:47:22.757Z,78.80
2023-04-16T09:49:50.472Z,78.70
2023-04-16T09:52:20.892Z,78.70
2023-04-16T09:54:50.696Z,78.60
2023-04-16T09:57:22.139Z,78.90
2023-04-16T09:59:52.399Z,78.70
2023-04-16T10:02:21.899Z,78.80
2023-04-16T10:04:52.400Z,78.20
2023-04-16T10:07:21.125Z,78.50
2023-04-16T10:09:49.943Z,78.50
2023-04-16T10:12:17.126Z,78.70
2023-04-16T10:14:44.249Z,78.20
2023-04-16T10:17:11.826Z,78.60
2023-04-16T10:19:39.948Z,78.70
2023-04-16T10:22:06.957Z,78.50
2023-04-16T10:24:37.728Z,79.10
2023-04-16T10:27:06.164Z,79.10
2023-04-16T10:29:35.450Z,78.50
2023-04-16T10:32:03.069Z,78.70
2023-04-16T10:34:33.026Z,78.90
2023-04-16T10:37:00.368Z,78.70
2023-04-16T10:39:29.933Z,78.80
2023-04-16T10:42:09.446Z,78.90
2023-04-16T10:44:36.982Z,78.90
2023-04-16T10:47:11.226Z,78.50
2023-04-16T10:49:38.072Z,78.60
2023-04-16T10:52:10.088Z,78.80
2023-04-16T10:54:37.734Z,78.70
2023-04-16T10:57:08.171Z,78.70
2023-04-16T10:59:38.035Z,78.50
2023-04-16T11:02:09.759Z,78.60
2023-04-16T11:04:38.103Z,78.60
2023-04-16T11:07:07.983Z,78.50
2023-04-16T11:09:51.402Z,78.40
2023-04-16T11:12:20.422Z,78.10
2023-04-16T11:14:50.530Z,78.20
2023-04-16T11:17:18.611Z,78.70
2023-04-16T11:19:46.186Z,78.90
2023-04-16T11:22:17.731Z,78.50
2023-04-16T11:24:47.353Z,78.40
2023-04-16T11:27:16.089Z,78.70
2023-04-16T11:29:45.016Z,78.50
2023-04-16T11:32:22.644Z,78.50
2023-04-16T11:34:50.589Z,78.50
2023-04-16T11:37:21.538Z,78.70
2023-04-16T11:39:52.949Z,78.60
2023-04-16T11:42:23.132Z,78.70
2023-04-16T11:44:54.453Z,78.50
2023-04-16T11:47:26.355Z,78.50
2023-04-16T11:49:53.615Z,78.30
2023-04-16T11:52:28.537Z,78.30
2023-04-16T11:54:57.022Z,78.00
2023-04-16T11:57:29.005Z,77.90
2023-04-16T12:00:01.762Z,78.10
2023-04-16T12:02:38.255Z,78.10
2023-04-16T12:05:08.257Z,78.20
2023-04-16T12:07:46.111Z,77.80
2023-04-16T12:10:13.099Z,78.10
2023-04-16T12:12:40.580Z,78.00
2023-04-16T12:15:09.264Z,78.10
2023-04-16T12:17:38.563Z,77.80
2023-04-16T12:20:11.216Z,77.70
2023-04-16T12:22:39.909Z,78.00
2023-04-16T12:25:11.680Z,78.10
2023-04-16T12:27:43.427Z,78.10
2023-04-16T12:30:12.044Z,78.10
2023-04-16T12:32:41.857Z,77.70
2023-04-16T12:35:10.391Z,78.10
2023-04-16T12:37:38.096Z,77.50
2023-04-16T12:40:07.042Z,77.80
2023-04-16T12:42:37.488Z,78.00
2023-04-16T12:45:06.951Z,77.80
2023-04-16T12:47:33.912Z,77.90
2023-04-16T12:50:02.618Z,78.10
2023-04-16T12:52:29.722Z,78.00
2023-04-16T12:54:56.745Z,77.50
2023-04-16T12:57:28.652Z,77.20
2023-04-16T12:59:56.958Z,77.20
2023-04-16T13:02:25.163Z,77.20
2023-04-16T13:04:52.727Z,77.30
2023-04-16T13:07:21.499Z,76.70
2023-04-16T13:09:48.647Z,76.80
2023-04-16T13:12:15.673Z,76.80
2023-04-16T13:14:44.956Z,76.50
2023-04-16T13:17:14.275Z,76.70
2023-04-16T13:19:41.199Z,76.40
2023-04-16T13:22:09.379Z,76.40
2023-04-16T13:24:40.887Z,76.40
2023-04-16T13:27:08.617Z,76.40
2023-04-16T13:29:38.383Z,76.50
2023-04-16T13:32:06.232Z,76.40
2023-04-16T13:34:33.274Z,76.30
2023-04-16T13:37:00.152Z,76.30
2023-04-16T13:39:27.706Z,76.30
2023-04-16T13:41:56.028Z,76.30
2023-04-16T13:44:22.899Z,76.30
2023-04-16T13:46:50.261Z,76.20
2023-04-16T13:49:17.252Z,76.40
2023-04-16T13:51:46.954Z,76.20
2023-04-16T13:54:14.196Z,76.20
2023-04-16T13:56:41.486Z,76.30
2023-04-16T13:59:10.909Z,76.10
2023-04-16T14:01:38.824Z,76.20
2023-04-16T14:04:07.094Z,76.00
2023-04-16T14:06:34.901Z,75.90
2023-04-16T14:09:01.864Z,75.90
2023-04-16T14:11:29.358Z,76.00
2023-04-16T14:13:56.392Z,75.70
2023-04-16T14:16:26.060Z,75.70
2023-04-16T14:18:53.739Z,75.80
2023-04-16T14:21:20.829Z,75.80
2023-04-16T14:23:48.080Z,75.70
2023-04-16T14:26:15.919Z,75.60
2023-04-16T14:28:42.921Z,75.80
2023-04-16T14:31:10.359Z,76.00
2023-04-16T14:33:38.786Z,75.70
2023-04-16T14:36:06.754Z,75.80
2023-04-16T14:38:33.725Z,75.90
2023-04-16T14:41:00.861Z,76.10
2023-04-16T14:43:28.099Z,76.10
2023-04-16T14:45:59.266Z,76.20
2023-04-16T14:48:26.198Z,76.20
2023-04-16T14:50:55.135Z,76.10
2023-04-16T14:53:24.523Z,76.00
2023-04-16T14:55:53.330Z,75.90
2023-04-16T14:58:20.475Z,76.10
2023-04-16T15:00:48.141Z,76.10
2023-04-16T15:03:15.410Z,76.00
2023-04-16T15:05:43.260Z,75.90
2023-04-16T15:08:12.072Z,75.80
2023-04-16T15:10:39.196Z,75.80
2023-04-16T15:13:06.501Z,75.80
2023-04-16T15:15:33.548Z,75.80
2023-04-16T15:18:00.782Z,75.80
2023-04-16T15:20:27.866Z,75.90
2023-04-16T15:22:57.201Z,75.70
2023-04-16T15:25:29.203Z,75.80
2023-04-16T15:27:57.987Z,75.70
2023-04-16T15:30:25.431Z,75.70
2023-04-16T15:32:52.537Z,75.70
2023-04-16T15:35:20.077Z,75.70
2023-04-16T15:37:46.963Z,75.60
2023-04-16T15:40:15.943Z,75.60
2023-04-16T15:42:45.079Z,75.80
2023-04-16T15:45:12.237Z,75.90
2023-04-16T15:47:41.621Z,75.80
2023-04-16T15:50:11.810Z,75.80
2023-04-16T15:52:39.605Z,75.90
2023-04-16T15:55:07.090Z,76.00
2023-04-16T15:57:35.340Z,76.00
2023-04-16T16:00:13.888Z,76.10
2023-04-16T16:02:41.872Z,76.10
2023-04-16T16:05:10.896Z,76.20
2023-04-16T16:07:37.872Z,76.20
2023-04-16T16:10:09.656Z,76.20
2023-04-16T16:12:37.442Z,76.00
2023-04-16T16:15:07.332Z,76.20
2023-04-16T16:17:37.358Z,76.10
2023-04-16T16:20:11.004Z,76.10
2023-04-16T16:22:39.023Z,76.20
2023-04-16T16:25:10.464Z,75.90
2023-04-16T16:27:37.700Z,75.80
2023-04-16T16:30:07.857Z,75.80
2023-04-16T16:32:35.513Z,76.00
2023-04-16T16:35:02.519Z,75.90
2023-04-16T16:37:36.335Z,75.80
2023-04-16T16:40:03.701Z,75.80
2023-04-16T16:42:35.031Z,75.80
2023-04-16T16:45:05.384Z,75.80
2023-04-16T16:47:33.759Z,75.80
2023-04-16T16:50:02.905Z,76.00
2023-04-16T16:52:30.731Z,75.60
2023-04-16T16:54:57.939Z,76.00
2023-04-16T16:57:25.821Z,76.20
2023-04-16T16:59:54.948Z,75.90
2023-04-16T17:02:21.971Z,76.00
2023-04-16T17:04:50.388Z,76.30
2023-04-16T17:07:18.390Z,76.30
2023-04-16T17:09:46.164Z,76.30
2023-04-16T17:12:13.651Z,76.00
2023-04-16T17:14:40.997Z,76.20
2023-04-16T17:17:08.538Z,76.30
2023-04-16T17:19:35.430Z,76.40
2023-04-16T17:22:05.157Z,76.40
2023-04-16T17:24:32.508Z,76.40
2023-04-16T17:26:59.332Z,76.40
2023-04-16T17:29:27.648Z,76.20
2023-04-16T17:31:54.688Z,76.30
2023-04-16T17:34:23.951Z,76.50
2023-04-16T17:36:51.690Z,76.50
2023-04-16T17:39:22.967Z,76.60
2023-04-16T17:41:54.403Z,76.50
2023-04-16T17:44:23.155Z,76.50
2023-04-16T17:46:50.472Z,76.40
2023-04-16T17:49:17.504Z,76.70
2023-04-16T17:51:44.820Z,76.90
2023-04-16T17:54:12.033Z,76.80
2023-04-16T17:56:41.722Z,76.70
2023-04-16T17:59:09.199Z,76.90
2023-04-16T18:01:36.207Z,76.70
2023-04-16T18:04:03.553Z,76.80
2023-04-16T18:06:30.971Z,76.90
2023-04-16T18:08:58.523Z,76.90
2023-04-16T18:11:25.581Z,77.00
2023-04-16T18:13:54.069Z,76.90
2023-04-16T18:16:22.943Z,76.90
2023-04-16T18:18:50.135Z,76.90
2023-04-16T18:21:17.964Z,76.90
2023-04-16T18:23:44.937Z,76.80
2023-04-16T18:26:12.802Z,76.90
2023-04-16T18:28:40.769Z,77.00
2023-04-16T18:31:09.235Z,77.00
2023-04-16T18:33:54.187Z,77.00
2023-04-16T18:36:24.255Z,77.00
2023-04-16T18:39:15.682Z,77.10
2023-04-16T18:41:38.976Z,77.00
2023-04-16T18:44:06.631Z,77.20
2023-04-16T18:46:35.523Z,77.20
2023-04-16T18:49:02.724Z,77.20
2023-04-16T18:51:30.417Z,77.30
2023-04-16T18:53:57.395Z,77.20
2023-04-16T18:56:31.866Z,77.40
2023-04-16T18:58:59.107Z,77.30
2023-04-16T19:01:26.678Z,77.50
2023-04-16T19:03:56.228Z,77.50
2023-04-16T19:06:23.252Z,77.40
2023-04-16T19:08:50.464Z,77.40
2023-04-16T19:11:17.506Z,77.50
2023-04-16T19:13:44.903Z,77.50
2023-04-16T19:16:13.247Z,77.50
2023-04-16T19:18:40.344Z,77.80
2023-04-16T19:21:10.879Z,77.80
2023-04-16T19:23:38.605Z,77.70
2023-04-16T19:26:05.952Z,77.80
2023-04-16T19:28:33.290Z,77.70
2023-04-16T19:31:00.335Z,77.70
2023-04-16T19:33:27.511Z,78.10
2023-04-16T19:35:54.673Z,77.90
2023-04-16T19:38:23.163Z,77.80
2023-04-16T19:40:51.604Z,77.90
2023-04-16T19:43:18.519Z,78.10
2023-04-16T19:45:46.893Z,78.10
2023-04-16T19:48:14.556Z,78.30
2023-04-16T19:50:42.330Z,78.60
2023-04-16T19:53:12.504Z,78.40
2023-04-16T19:55:41.644Z,78.50
2023-04-16T19:58:09.385Z,78.30
2023-04-16T20:00:37.457Z,78.40
2023-04-16T20:03:07.123Z,78.70
2023-04-16T20:05:34.842Z,78.40
2023-04-16T20:08:01.849Z,78.30
2023-04-16T20:10:31.544Z,78.40
2023-04-16T20:13:00.752Z,78.50
2023-04-16T20:15:27.839Z,78.80
2023-04-16T20:17:56.398Z,78.50
2023-04-16T20:20:26.802Z,78.90
2023-04-16T20:22:54.075Z,79.10
2023-04-16T20:25:22.048Z,79.10
2023-04-16T20:27:49.153Z,79.10
2023-04-16T20:30:18.517Z,79.10
2023-04-16T20:32:45.566Z,78.90
2023-04-16T20:35:12.801Z,79.00
2023-04-16T20:37:42.081Z,79.00
2023-04-16T20:40:12.916Z,79.00
2023-04-16T20:42:41.181Z,79.00
2023-04-16T20:45:09.766Z,78.70
2023-04-16T20:47:38.703Z,78.90
2023-04-16T20:50:07.337Z,78.90
2023-04-16T20:52:34.281Z,79.00
2023-04-16T20:55:01.512Z,79.00
2023-04-16T20:57:29.973Z,79.00
2023-04-16T20:59:57.001Z,78.90
2023-04-16T21:02:24.519Z,78.90
2023-04-16T21:04:55.380Z,79.50
2023-04-16T21:07:22.247Z,79.00
2023-04-16T21:09:52.210Z,79.30
2023-04-16T21:12:19.743Z,79.30
2023-04-16T21:14:52.707Z,79.40
2023-04-16T21:17:19.947Z,79.10
2023-04-16T21:19:46.862Z,79.40
2023-04-16T21:22:15.417Z,79.50
2023-04-16T21:24:45.273Z,79.60
2023-04-16T21:27:12.100Z,79.40
2023-04-16T21:29:39.265Z,79.60
2023-04-16T21:32:06.557Z,79.50
2023-04-16T21:34:33.552Z,79.30
2023-04-16T21:37:00.508Z,79.50
2023-04-16T21:39:31.061Z,79.30
2023-04-16T21:41:58.148Z,79.40
2023-04-16T21:44:25.748Z,79.40
2023-04-16T21:46:52.966Z,79.50
2023-04-16T21:49:20.356Z,79.00
2023-04-16T21:51:47.312Z,79.40
2023-04-16T21:54:17.817Z,79.70
2023-04-16T21:56:46.453Z,79.50
2023-04-16T21:59:13.572Z,79.70
2023-04-16T22:01:40.793Z,79.80
2023-04-16T22:04:10.423Z,79.60
2023-04-16T22:06:37.315Z,79.60
2023-04-16T22:09:06.667Z,79.80
2023-04-16T22:11:33.946Z,79.70
2023-04-16T22:14:03.503Z,79.70
2023-04-16T22:16:31.568Z,79.70
2023-04-16T22:18:59.343Z,79.90
2023-04-16T22:21:26.495Z,79.70
2023-04-16T22:23:53.574Z,79.60
2023-04-16T22:26:20.932Z,79.50
2023-04-16T22:28:48.117Z,79.70
2023-04-16T22:31:17.564Z,80.10
2023-04-16T22:33:44.762Z,79.60
2023-04-16T22:36:12.604Z,79.70
2023-04-16T22:38:39.760Z,79.70
2023-04-16T22:41:06.866Z,79.80
2023-04-16T22:43:36.929Z,79.70
2023-04-16T22:46:05.336Z,79.50
2023-04-16T22:48:36.437Z,79.70
2023-04-16T22:51:04.441Z,79.70
2023-04-16T22:53:31.574Z,79.50
2023-04-16T22:55:58.509Z,79.60
2023-04-16T22:58:25.552Z,79.80
2023-04-16T23:00:52.730Z,79.90
2023-04-16T23:03:19.890Z,79.80
2023-04-16T23:05:49.508Z,80.10
2023-04-16T23:08:16.360Z,80.10
2023-04-16T23:10:44.199Z,80.20
2023-04-16T23:13:11.255Z,80.30
2023-04-16T23:15:38.574Z,80.10
2023-04-16T23:18:07.829Z,80.00
2023-04-16T23:20:34.827Z,80.30
2023-04-16T23:23:03.174Z,80.00
2023-04-16T23:25:30.991Z,80.30
2023-04-16T23:27:58.043Z,80.20
2023-04-16T23:30:25.388Z,79.90
2023-04-16T23:32:52.739Z,80.20
2023-04-16T23:35:22.931Z,80.10
2023-04-16T23:37:50.865Z,80.10
2023-04-16T23:40:19.435Z,80.30
2023-04-16T23:42:46.532Z,80.30
2023-04-16T23:45:13.959Z,80.30
2023-04-16T23:47:41.002Z,80.30
2023-04-16T23:50:08.686Z,80.40
2023-04-16T23:52:35.747Z,80.00
2023-04-16T23:55:03.239Z,80.30
2023-04-16T23:57:31.627Z,80.30
2023-04-16T23:59:58.615Z,80.20
